KALM/ALM METAR and TAF weather

Enter ICAO airport designator
Station Type Date Time Source
KALM METAR 2022/01/29 10:35 UTC NOAA

KALM 291035Z AUTO 33004KT 10SM CLR M03/M13 A3041 RMK AO2


Station Type Date Time Source
KALM Decoded METAR 2022/01/29 10:35 UTC NOAA

Alamogordo-White, NM, United States (KALM) 32-50N 105-59W
Jan 29, 2022 - 05:35 AM EST / 2022.01.29 1035 UTC
Wind: from the NNW (330 degrees) at 5 MPH (4 KT):0
Visibility: 10 mile(s):0
Sky conditions: clear
Temperature: 26 F (-3 C)
Windchill: 19 F (-7 C):1
Dew Point: 8 F (-13 C)
Relative Humidity: 45%
Pressure (altimeter): 30.41 in. Hg (1029 hPa)
ob: KALM 291035Z AUTO 33004KT 10SM CLR M03/M13 A3041 RMK AO2
cycle: 10

Station Type Date Time Source
KALM TAF UTC NOAA

Error!

Example: see airport list